Time;durP1;ratioP1;P1;durP2;ratioP2;P2;SDS_P1;SDS_P2;PMS_P1;PMS_P2;Temp;Humidity;BMP_temperature;BMP_pressure;BME280_temperature;BME280_humidity;BME280_pressure;Samples;Min_cycle;Max_cycle;Signal;HPM_P1;HPM_P2
2023/08/21 00:00:35;;;;;;;7.75;5.72;;;;;;;;;;12794218;23;20067;-73
2023/08/21 00:05:35;;;;;;;10.27;6.13;;;;;;;;;;12767100;23;20076;-73
2023/08/21 00:10:38;;;;;;;9.15;6.47;;;;;;;;;;12814016;23;20200;-73
2023/08/21 00:15:39;;;;;;;8.52;6.55;;;;;;;;;;12813915;23;20226;-73
2023/08/21 00:20:41;;;;;;;8.37;6.33;;;;;;;;;;12815163;23;20015;-73
2023/08/21 00:25:42;;;;;;;11.25;6.65;;;;;;;;;;12814071;23;19997;-73
2023/08/21 00:30:42;;;;;;;15.27;7.82;;;;;;;;;;12814923;23;20013;-73
2023/08/21 00:35:42;;;;;;;13.80;7.10;;;;;;;;;;12814139;23;19997;-73
2023/08/21 00:40:43;;;;;;;11.90;6.67;;;;;;;;;;12811881;23;20282;-73
2023/08/21 00:45:44;;;;;;;24.42;19.52;;;;;;;;;;12814431;23;20248;-73
2023/08/21 00:50:44;;;;;;;12.68;7.05;;;;;;;;;;12813540;23;20313;-73
2023/08/21 00:55:44;;;;;;;14.60;7.83;;;;;;;;;;12813639;23;19997;-73
2023/08/21 01:00:47;;;;;;;12.83;6.90;;;;;;;;;;12813469;23;20009;-73
2023/08/21 01:05:47;;;;;;;10.77;6.88;;;;;;;;;;12814096;23;19997;-73
2023/08/21 01:10:51;;;;;;;10.98;6.80;;;;;;;;;;12813215;23;19996;-73
2023/08/21 01:15:54;;;;;;;10.25;7.10;;;;;;;;;;12813243;23;20511;-73
2023/08/21 01:20:54;;;;;;;17.73;7.35;;;;;;;;;;12814112;23;20417;-73
2023/08/21 01:25:54;;;;;;;9.87;7.57;;;;;;;;;;12817325;23;20005;-73
2023/08/21 01:31:07;;;;;;;10.77;7.63;;;;;;;;;;12817397;23;20418;-73
2023/08/21 01:36:07;;;;;;;9.70;6.53;;;;;;;;;;12818387;23;20275;-72
2023/08/21 01:41:08;;;;;;;8.02;6.50;;;;;;;;;;12813827;23;19993;-72
2023/08/21 01:46:08;;;;;;;12.82;7.55;;;;;;;;;;12817072;23;20303;-72
2023/08/21 01:51:08;;;;;;;11.00;7.47;;;;;;;;;;12811179;23;19993;-72
2023/08/21 01:56:09;;;;;;;10.73;7.15;;;;;;;;;;12769758;23;19997;-73
2023/08/21 02:01:09;;;;;;;13.40;8.63;;;;;;;;;;12816725;23;20003;-73
2023/08/21 02:06:09;;;;;;;11.77;6.70;;;;;;;;;;12816602;23;20032;-73
2023/08/21 02:11:09;;;;;;;12.95;7.43;;;;;;;;;;12816877;23;20184;-74
2023/08/21 02:16:10;;;;;;;11.27;6.38;;;;;;;;;;12770560;23;19997;-73
2023/08/21 02:21:10;;;;;;;9.18;7.32;;;;;;;;;;12816383;23;20219;-74
2023/08/21 02:26:10;;;;;;;14.55;7.25;;;;;;;;;;12816286;23;20021;-74
2023/08/21 02:31:11;;;;;;;12.80;7.07;;;;;;;;;;12816115;23;20009;-74
2023/08/21 02:36:11;;;;;;;13.45;6.93;;;;;;;;;;12769109;23;20203;-74
2023/08/21 02:41:11;;;;;;;11.47;6.87;;;;;;;;;;12812460;23;19993;-74
2023/08/21 02:46:12;;;;;;;15.07;7.10;;;;;;;;;;12815358;23;20048;-73
2023/08/21 02:51:12;;;;;;;11.13;7.60;;;;;;;;;;12816349;23;19993;-72
2023/08/21 02:56:12;;;;;;;8.80;6.63;;;;;;;;;;12815729;23;20216;-73
2023/08/21 03:01:13;;;;;;;18.57;8.77;;;;;;;;;;12815602;23;19997;-72
2023/08/21 03:06:13;;;;;;;12.47;8.23;;;;;;;;;;12815274;23;20219;-72
2023/08/21 03:11:13;;;;;;;14.18;7.40;;;;;;;;;;12815372;23;20012;-72
2023/08/21 03:16:14;;;;;;;14.18;6.03;;;;;;;;;;12815561;23;19997;-72
2023/08/21 03:21:14;;;;;;;9.77;6.53;;;;;;;;;;12768556;23;20039;-75
2023/08/21 03:26:14;;;;;;;9.77;6.57;;;;;;;;;;12815078;23;19993;-73
2023/08/21 03:31:15;;;;;;;12.65;7.13;;;;;;;;;;12814679;23;20510;-73
2023/08/21 03:36:15;;;;;;;12.45;6.95;;;;;;;;;;12815205;23;20287;-73
2023/08/21 03:41:15;;;;;;;11.13;6.10;;;;;;;;;;12768127;23;20043;-73
2023/08/21 03:46:16;;;;;;;12.10;6.67;;;;;;;;;;12813933;23;20307;-73
2023/08/21 03:51:16;;;;;;;12.82;7.90;;;;;;;;;;12813724;23;19997;-73
2023/08/21 03:56:17;;;;;;;70.32;64.18;;;;;;;;;;12813848;23;20009;-73
2023/08/21 04:01:17;;;;;;;12.40;7.00;;;;;;;;;;12814247;23;20025;-73
2023/08/21 04:06:17;;;;;;;13.45;7.65;;;;;;;;;;12815032;23;20247;-73
2023/08/21 04:11:17;;;;;;;9.85;7.20;;;;;;;;;;12813772;23;20196;-73
2023/08/21 04:16:18;;;;;;;13.80;7.47;;;;;;;;;;12814306;23;20020;-73
2023/08/21 04:21:18;;;;;;;12.48;8.88;;;;;;;;;;12813664;23;20279;-73
2023/08/21 04:26:19;;;;;;;12.43;8.32;;;;;;;;;;12813707;23;20001;-74
2023/08/21 04:31:19;;;;;;;12.55;8.40;;;;;;;;;;12759562;23;20071;-72
2023/08/21 04:36:19;;;;;;;12.37;7.90;;;;;;;;;;12798495;23;20001;-76
2023/08/21 04:41:19;;;;;;;19.58;8.43;;;;;;;;;;12793636;23;20365;-69
2023/08/21 04:46:21;;;;;;;11.00;7.20;;;;;;;;;;12796880;23;20008;-69
2023/08/21 04:51:21;;;;;;;18.80;8.05;;;;;;;;;;12796907;23;19997;-70
2023/08/21 04:56:21;;;;;;;12.30;8.80;;;;;;;;;;12796051;23;20406;-69
2023/08/21 05:01:22;;;;;;;15.55;8.02;;;;;;;;;;12797247;23;20005;-69
2023/08/21 05:06:22;;;;;;;18.90;8.40;;;;;;;;;;12746998;23;20008;-69
2023/08/21 05:11:22;;;;;;;15.57;9.48;;;;;;;;;;12790333;23;20016;-69
2023/08/21 05:16:22;;;;;;;16.42;8.90;;;;;;;;;;12791205;23;20032;-69
2023/08/21 05:21:23;;;;;;;16.48;9.00;;;;;;;;;;12791931;23;20071;-69
2023/08/21 05:26:23;;;;;;;12.25;7.63;;;;;;;;;;12795259;23;20092;-69
2023/08/21 05:31:23;;;;;;;10.37;7.80;;;;;;;;;;12795482;23;20016;-69
2023/08/21 05:36:23;;;;;;;9.85;7.25;;;;;;;;;;12797148;23;20206;-67
2023/08/21 05:41:24;;;;;;;15.32;7.72;;;;;;;;;;12790495;23;20009;-67
2023/08/21 05:46:24;;;;;;;11.70;7.22;;;;;;;;;;12796118;23;20183;-68
2023/08/21 05:51:24;;;;;;;14.73;7.90;;;;;;;;;;12796739;23;20003;-68
2023/08/21 05:56:25;;;;;;;12.68;7.40;;;;;;;;;;12796593;23;20300;-68
2023/08/21 06:01:25;;;;;;;13.00;7.25;;;;;;;;;;12795443;23;20025;-68
2023/08/21 06:06:25;;;;;;;18.52;7.45;;;;;;;;;;12796431;23;20001;-68
2023/08/21 06:11:25;;;;;;;10.23;6.50;;;;;;;;;;12799841;23;19997;-68
2023/08/21 06:16:26;;;;;;;11.85;6.18;;;;;;;;;;12799768;23;20164;-68
2023/08/21 06:21:26;;;;;;;11.57;6.40;;;;;;;;;;12751989;23;20072;-68
2023/08/21 06:26:26;;;;;;;13.68;6.05;;;;;;;;;;12799254;23;20096;-69
2023/08/21 06:31:26;;;;;;;16.90;6.70;;;;;;;;;;12799319;23;20056;-68
2023/08/21 06:36:27;;;;;;;16.60;6.20;;;;;;;;;;12799068;23;20223;-68
2023/08/21 06:41:27;;;;;;;8.60;5.50;;;;;;;;;;12794839;23;20016;-69
2023/08/21 06:46:28;;;;;;;10.02;5.10;;;;;;;;;;12798381;23;20053;-69
2023/08/21 06:51:28;;;;;;;11.43;4.95;;;;;;;;;;12800019;23;20021;-67
2023/08/21 06:56:28;;;;;;;11.20;5.32;;;;;;;;;;12799322;23;19993;-68
2023/08/21 07:01:28;;;;;;;10.07;4.65;;;;;;;;;;12798348;23;20001;-68
2023/08/21 07:06:30;;;;;;;7.65;4.50;;;;;;;;;;12800534;23;20282;-68
2023/08/21 07:11:30;;;;;;;9.38;4.55;;;;;;;;;;12799238;23;20004;-68
2023/08/21 07:16:30;;;;;;;16.73;5.35;;;;;;;;;;12798669;23;20005;-66
2023/08/21 07:21:30;;;;;;;9.82;4.15;;;;;;;;;;12797122;23;20012;-68
2023/08/21 07:26:31;;;;;;;15.93;4.88;;;;;;;;;;12804804;23;20361;-68
2023/08/21 07:31:31;;;;;;;9.93;4.70;;;;;;;;;;12805554;23;20016;-68
2023/08/21 07:36:32;;;;;;;9.10;4.50;;;;;;;;;;12803852;23;20001;-68
2023/08/21 07:41:32;;;;;;;13.25;4.38;;;;;;;;;;12799416;23;20000;-67
2023/08/21 07:46:32;;;;;;;14.23;5.10;;;;;;;;;;12788885;23;20264;-67
2023/08/21 07:51:32;;;;;;;11.32;3.85;;;;;;;;;;12803860;23;19985;-68
2023/08/21 07:56:35;;;;;;;7.63;4.75;;;;;;;;;;12804001;23;19997;-68
2023/08/21 08:01:35;;;;;;;11.60;3.88;;;;;;;;;;12802902;23;19985;-68
2023/08/21 08:06:35;;;;;;;11.57;4.40;;;;;;;;;;12757005;23;20260;-67
2023/08/21 08:11:36;;;;;;;6.73;3.00;;;;;;;;;;12803596;23;19985;-68
2023/08/21 08:16:36;;;;;;;9.30;2.73;;;;;;;;;;12795430;23;20275;-67
2023/08/21 08:21:36;;;;;;;3.17;2.78;;;;;;;;;;12803488;23;20264;-67
2023/08/21 08:26:37;;;;;;;7.32;3.58;;;;;;;;;;12803452;23;20004;-68
2023/08/21 08:31:38;;;;;;;6.93;2.90;;;;;;;;;;12804387;23;20064;-68
2023/08/21 08:36:41;;;;;;;6.57;2.80;;;;;;;;;;12803260;23;20076;-66
2023/08/21 08:41:47;;;;;;;5.57;3.10;;;;;;;;;;12797222;23;20212;-69
2023/08/21 08:46:47;;;;;;;5.00;3.30;;;;;;;;;;12803848;23;20005;-67
2023/08/21 08:51:49;;;;;;;9.33;3.80;;;;;;;;;;12804080;23;20411;-67
2023/08/21 08:56:49;;;;;;;8.15;3.25;;;;;;;;;;12803818;23;20003;-67
2023/08/21 09:01:50;;;;;;;8.25;2.65;;;;;;;;;;12803594;23;19989;-67
2023/08/21 09:06:50;;;;;;;6.22;2.58;;;;;;;;;;12802891;23;20231;-68
2023/08/21 09:11:51;;;;;;;6.10;3.20;;;;;;;;;;12802520;23;19993;-68
2023/08/21 09:16:59;;;;;;;7.30;3.10;;;;;;;;;;12803036;23;20020;-68
2023/08/21 09:22:09;;;;;;;6.93;2.65;;;;;;;;;;12802895;23;20570;-67
2023/08/21 09:27:14;;;;;;;7.63;2.72;;;;;;;;;;12801881;23;20028;-68
2023/08/21 09:32:15;;;;;;;5.88;2.83;;;;;;;;;;12802733;23;20004;-67
2023/08/21 09:37:17;;;;;;;7.10;2.58;;;;;;;;;;12780954;23;20207;-67
2023/08/21 09:42:17;;;;;;;7.50;2.97;;;;;;;;;;12793985;23;20001;-67
2023/08/21 09:47:18;;;;;;;5.72;2.90;;;;;;;;;;12758955;23;20187;-67
2023/08/21 09:52:18;;;;;;;6.13;2.60;;;;;;;;;;12805436;23;19997;-68
2023/08/21 09:57:20;;;;;;;3.80;2.30;;;;;;;;;;12757945;23;19989;-67
2023/08/21 10:02:21;;;;;;;6.20;2.38;;;;;;;;;;12758580;23;20001;-67
2023/08/21 10:07:23;;;;;;;7.28;2.30;;;;;;;;;;12805505;23;20332;-67
2023/08/21 10:12:24;;;;;;;3.13;2.72;;;;;;;;;;12805776;23;20051;-67
2023/08/21 10:17:24;;;;;;;6.22;2.33;;;;;;;;;;12805713;23;20287;-67
2023/08/21 10:22:57;;;;;;;6.50;2.67;;;;;;;;;;12806442;23;20147;-67
2023/08/21 10:27:58;;;;;;;3.65;2.05;;;;;;;;;;12723931;23;20017;-68
2023/08/21 10:32:59;;;;;;;12.35;2.63;;;;;;;;;;12806010;23;20079;-67
2023/08/21 10:38:16;;;;;;;4.93;1.70;;;;;;;;;;12805173;23;20279;-70
2023/08/21 10:43:35;;;;;;;6.15;1.63;;;;;;;;;;12791261;23;20056;-70
2023/08/21 10:48:36;;;;;;;8.90;2.08;;;;;;;;;;12804301;23;20005;-71
2023/08/21 10:53:38;;;;;;;4.82;2.10;;;;;;;;;;12803780;23;20503;-69
2023/08/21 10:58:42;;;;;;;10.20;2.03;;;;;;;;;;12756456;23;19997;-71
2023/08/21 11:03:46;;;;;;;4.78;2.58;;;;;;;;;;12803534;23;20293;-70
2023/08/21 11:08:46;;;;;;;9.63;3.05;;;;;;;;;;12803187;23;20236;-71
2023/08/21 11:13:52;;;;;;;8.75;3.28;;;;;;;;;;12803237;23;20047;-70
2023/08/21 11:18:52;;;;;;;5.55;3.80;;;;;;;;;;12803653;23;20203;-70
2023/08/21 11:23:53;;;;;;;7.78;2.45;;;;;;;;;;12802543;23;19989;-71
2023/08/21 11:28:55;;;;;;;7.10;3.50;;;;;;;;;;12802643;23;20271;-71
2023/08/21 11:33:55;;;;;;;8.30;3.00;;;;;;;;;;12800786;23;20001;-71
2023/08/21 11:39:00;;;;;;;6.50;2.88;;;;;;;;;;12803195;23;19996;-71
2023/08/21 11:44:08;;;;;;;17.45;4.43;;;;;;;;;;12787729;23;20180;-70
2023/08/21 11:49:08;;;;;;;7.22;3.10;;;;;;;;;;12785247;23;20299;-71
2023/08/21 11:54:08;;;;;;;5.07;3.15;;;;;;;;;;12803371;23;19997;-70
2023/08/21 11:59:09;;;;;;;9.35;3.58;;;;;;;;;;12803213;23;20185;-71
2023/08/21 12:04:15;;;;;;;8.80;3.27;;;;;;;;;;12803002;23;20028;-70
2023/08/21 12:09:16;;;;;;;9.75;3.58;;;;;;;;;;12803125;23;19996;-72
2023/08/21 12:14:16;;;;;;;9.20;3.77;;;;;;;;;;12803479;23;20072;-68
2023/08/21 12:19:17;;;;;;;5.30;3.28;;;;;;;;;;12798748;23;20190;-69
2023/08/21 12:24:17;;;;;;;5.40;3.20;;;;;;;;;;12802842;23;20008;-68
2023/08/21 12:29:17;;;;;;;5.38;3.22;;;;;;;;;;12802699;23;20033;-69
2023/08/21 12:34:17;;;;;;;4.20;3.15;;;;;;;;;;12802181;23;20191;-69
2023/08/21 12:39:18;;;;;;;8.47;3.93;;;;;;;;;;12801206;23;20028;-69
2023/08/21 12:44:18;;;;;;;7.63;3.97;;;;;;;;;;12786494;23;20491;-69
2023/08/21 12:49:18;;;;;;;4.65;3.35;;;;;;;;;;12801579;23;20012;-69
2023/08/21 12:54:19;;;;;;;4.93;3.50;;;;;;;;;;12801157;23;20001;-69
2023/08/21 12:59:19;;;;;;;5.97;3.45;;;;;;;;;;12802211;23;20500;-69
2023/08/21 13:04:19;;;;;;;7.75;3.40;;;;;;;;;;12801321;23;20005;-70
2023/08/21 13:09:19;;;;;;;7.63;3.15;;;;;;;;;;12801596;23;20005;-69
2023/08/21 13:14:20;;;;;;;4.72;3.42;;;;;;;;;;12801910;23;20028;-69
2023/08/21 13:19:20;;;;;;;5.72;3.38;;;;;;;;;;12804412;23;20024;-69
2023/08/21 13:24:21;;;;;;;11.00;3.55;;;;;;;;;;12805981;23;19997;-70
2023/08/21 13:29:21;;;;;;;10.10;4.30;;;;;;;;;;12806274;23;20048;-70
2023/08/21 13:34:21;;;;;;;13.00;4.28;;;;;;;;;;12805775;23;20199;-69
2023/08/21 13:39:22;;;;;;;8.50;3.35;;;;;;;;;;12806571;23;20001;-69
2023/08/21 13:44:22;;;;;;;5.53;3.50;;;;;;;;;;12788799;23;20000;-69
2023/08/21 13:49:22;;;;;;;8.02;4.10;;;;;;;;;;12805112;23;20008;-68
2023/08/21 13:54:23;;;;;;;5.95;3.42;;;;;;;;;;12784696;23;20001;-69
2023/08/21 13:59:23;;;;;;;7.00;3.70;;;;;;;;;;12805284;23;20001;-69
2023/08/21 14:04:24;;;;;;;5.37;3.57;;;;;;;;;;12757273;23;20016;-69
2023/08/21 14:09:24;;;;;;;9.15;3.67;;;;;;;;;;12803996;23;19996;-68
2023/08/21 14:14:24;;;;;;;6.55;3.47;;;;;;;;;;12805653;23;19996;-69
2023/08/21 14:19:25;;;;;;;4.60;3.42;;;;;;;;;;12803841;23;20351;-70
2023/08/21 14:24:26;;;;;;;9.98;3.38;;;;;;;;;;12804099;23;20039;-69
2023/08/21 14:29:26;;;;;;;3.95;3.28;;;;;;;;;;12801530;23;20004;-69
2023/08/21 14:34:29;;;;;;;7.15;3.20;;;;;;;;;;12800812;23;20292;-69
2023/08/21 14:39:30;;;;;;;7.47;4.03;;;;;;;;;;12797234;23;20318;-69
2023/08/21 14:44:30;;;;;;;4.70;4.15;;;;;;;;;;12780195;23;20288;-69
2023/08/21 14:49:30;;;;;;;10.68;3.92;;;;;;;;;;12797614;23;20336;-69
2023/08/21 14:54:33;;;;;;;5.10;4.07;;;;;;;;;;12796882;23;20427;-69
2023/08/21 14:59:33;;;;;;;10.90;3.75;;;;;;;;;;12798034;23;20045;-69
2023/08/21 15:04:33;;;;;;;9.88;4.13;;;;;;;;;;12797656;23;20017;-69
2023/08/21 15:09:34;;;;;;;6.30;4.13;;;;;;;;;;12796970;23;20164;-69
2023/08/21 15:14:34;;;;;;;5.57;4.63;;;;;;;;;;12799339;23;20001;-69
2023/08/21 15:19:34;;;;;;;8.80;4.47;;;;;;;;;;12801213;23;20077;-69
2023/08/21 15:24:35;;;;;;;5.95;4.20;;;;;;;;;;12800825;23;20001;-70
2023/08/21 15:29:35;;;;;;;6.88;4.30;;;;;;;;;;12740960;23;1136403;-68
2023/08/21 15:34:35;;;;;;;8.35;4.60;;;;;;;;;;12803468;23;20008;-70
2023/08/21 15:39:35;;;;;;;9.25;4.30;;;;;;;;;;12802716;23;20001;-69
2023/08/21 15:44:36;;;;;;;5.93;4.03;;;;;;;;;;12786525;23;20009;-69
2023/08/21 15:49:37;;;;;;;8.88;3.83;;;;;;;;;;12803913;23;20323;-69
2023/08/21 15:54:37;;;;;;;7.07;4.18;;;;;;;;;;12806625;23;20052;-69
2023/08/21 15:59:38;;;;;;;8.65;4.00;;;;;;;;;;12808536;23;20012;-69
2023/08/21 16:04:39;;;;;;;7.90;4.35;;;;;;;;;;12807915;23;19999;-69
2023/08/21 16:09:39;;;;;;;6.38;4.00;;;;;;;;;;12807407;23;20318;-69
2023/08/21 16:14:39;;;;;;;12.23;4.30;;;;;;;;;;12795409;23;20005;-68
2023/08/21 16:19:40;;;;;;;11.40;4.87;;;;;;;;;;12804168;23;20008;-69
2023/08/21 16:24:40;;;;;;;12.23;5.23;;;;;;;;;;12804872;23;19993;-69
2023/08/21 16:29:40;;;;;;;13.82;5.28;;;;;;;;;;12806995;23;20005;-69
2023/08/21 16:34:40;;;;;;;8.17;4.67;;;;;;;;;;12807684;23;20299;-72
2023/08/21 16:39:41;;;;;;;9.80;5.37;;;;;;;;;;12807166;23;20414;-72
2023/08/21 16:44:41;;;;;;;11.40;5.28;;;;;;;;;;12786988;23;20315;-73
2023/08/21 16:49:41;;;;;;;10.40;4.82;;;;;;;;;;12806245;23;20500;-71
2023/08/21 16:54:42;;;;;;;11.38;5.60;;;;;;;;;;12760603;23;20287;-72
2023/08/21 16:59:42;;;;;;;18.40;4.93;;;;;;;;;;12805883;23;19997;-71
2023/08/21 17:04:42;;;;;;;9.23;5.50;;;;;;;;;;12806623;23;19997;-71
2023/08/21 17:09:46;;;;;;;9.80;5.78;;;;;;;;;;12806898;23;20164;-72
2023/08/21 17:14:46;;;;;;;12.77;5.95;;;;;;;;;;12806087;23;20087;-73
2023/08/21 17:19:46;;;;;;;7.38;5.47;;;;;;;;;;12804274;23;20290;-72
2023/08/21 17:24:47;;;;;;;9.48;5.93;;;;;;;;;;12806685;23;19993;-72
2023/08/21 17:29:49;;;;;;;10.95;5.82;;;;;;;;;;12759170;23;20306;-72
2023/08/21 17:34:49;;;;;;;7.90;5.18;;;;;;;;;;12805664;23;20001;-72
2023/08/21 17:39:49;;;;;;;8.48;5.13;;;;;;;;;;12806689;23;19997;-78
2023/08/21 17:44:49;;;;;;;7.87;5.63;;;;;;;;;;12786218;23;20003;-77
2023/08/21 17:49:50;;;;;;;8.00;5.30;;;;;;;;;;12805374;23;20005;-71
2023/08/21 17:54:50;;;;;;;9.40;5.85;;;;;;;;;;12806096;23;20291;-74
2023/08/21 17:59:50;;;;;;;10.10;5.95;;;;;;;;;;12805884;23;20000;-73
2023/08/21 18:04:51;;;;;;;13.97;6.50;;;;;;;;;;12807172;23;20036;-79
2023/08/21 18:09:52;;;;;;;10.65;6.00;;;;;;;;;;12809319;23;20303;-77
2023/08/21 18:14:52;;;;;;;11.57;5.90;;;;;;;;;;12807428;23;20019;-76
2023/08/21 18:19:53;;;;;;;11.35;6.20;;;;;;;;;;12807297;23;19997;-78
2023/08/21 18:24:53;;;;;;;9.13;6.20;;;;;;;;;;12809267;23;19996;-75
2023/08/21 18:29:53;;;;;;;14.85;5.53;;;;;;;;;;12807899;23;20013;-75
2023/08/21 18:34:54;;;;;;;10.25;6.18;;;;;;;;;;12806025;23;20294;-76
2023/08/21 18:39:54;;;;;;;10.60;6.68;;;;;;;;;;12805648;23;20076;-76
2023/08/21 18:44:54;;;;;;;7.55;6.25;;;;;;;;;;12787404;23;20554;-81
2023/08/21 18:49:54;;;;;;;13.43;6.50;;;;;;;;;;12806661;23;20001;-78
2023/08/21 18:54:55;;;;;;;13.05;7.05;;;;;;;;;;12808732;23;20354;-82
2023/08/21 18:59:55;;;;;;;14.70;7.00;;;;;;;;;;12759525;23;20179;-80
2023/08/21 19:04:55;;;;;;;13.75;7.82;;;;;;;;;;12809378;23;20004;-83
2023/08/21 19:09:55;;;;;;;17.48;7.40;;;;;;;;;;12810649;23;19997;-76
2023/08/21 19:14:57;;;;;;;10.55;6.85;;;;;;;;;;12809362;23;20051;-80
2023/08/21 19:19:57;;;;;;;10.20;7.97;;;;;;;;;;12794584;23;20187;-70
2023/08/21 19:24:58;;;;;;;11.43;6.90;;;;;;;;;;12807727;23;20005;-72
2023/08/21 19:29:58;;;;;;;12.13;7.60;;;;;;;;;;12807600;23;20028;-79
2023/08/21 19:34:58;;;;;;;12.52;7.35;;;;;;;;;;12813288;23;20236;-85
2023/08/21 19:39:59;;;;;;;11.85;8.18;;;;;;;;;;12764411;23;20220;-81
2023/08/21 19:44:59;;;;;;;11.82;7.03;;;;;;;;;;12765270;23;20005;-82
2023/08/21 19:50:01;;;;;;;14.87;7.50;;;;;;;;;;12813455;23;20047;-77
2023/08/21 19:55:01;;;;;;;16.48;7.97;;;;;;;;;;12806813;23;20271;-77
2023/08/21 20:00:01;;;;;;;16.00;7.40;;;;;;;;;;12808167;23;20025;-76
2023/08/21 20:05:03;;;;;;;11.33;7.30;;;;;;;;;;12810616;23;19985;-84
2023/08/21 20:10:04;;;;;;;8.43;7.00;;;;;;;;;;12770982;23;20367;-86
2023/08/21 20:15:04;;;;;;;13.13;7.30;;;;;;;;;;12812543;23;20290;-76
2023/08/21 20:20:08;;;;;;;11.03;7.63;;;;;;;;;;12814641;23;19993;-79
2023/08/21 20:25:08;;;;;;;13.63;7.45;;;;;;;;;;12810271;23;20212;-76
2023/08/21 20:30:09;;;;;;;10.33;7.90;;;;;;;;;;12815606;23;20088;-68
2023/08/21 20:35:10;;;;;;;11.25;7.53;;;;;;;;;;12787191;23;20179;-68
2023/08/21 20:40:10;;;;;;;10.98;7.88;;;;;;;;;;12809195;23;20028;-74
2023/08/21 20:45:11;;;;;;;10.18;7.50;;;;;;;;;;12761718;23;20001;-73
2023/08/21 20:50:11;;;;;;;11.95;8.07;;;;;;;;;;12761609;23;20004;-72
2023/08/21 20:55:12;;;;;;;16.23;7.70;;;;;;;;;;12808447;23;19997;-79
2023/08/21 21:00:12;;;;;;;13.95;8.98;;;;;;;;;;12810309;23;20235;-81
2023/08/21 21:05:12;;;;;;;14.03;8.37;;;;;;;;;;12814218;23;20187;-84
2023/08/21 21:10:12;;;;;;;10.05;7.53;;;;;;;;;;12768251;23;20188;-75
2023/08/21 21:15:13;;;;;;;10.70;8.23;;;;;;;;;;12808402;23;20059;-74
2023/08/21 21:20:13;;;;;;;9.93;7.38;;;;;;;;;;12809380;23;20020;-78
2023/08/21 21:25:14;;;;;;;12.98;7.60;;;;;;;;;;12809613;23;20295;-79
2023/08/21 21:30:14;;;;;;;11.65;8.55;;;;;;;;;;12811990;23;20203;-80
2023/08/21 21:35:14;;;;;;;11.87;8.60;;;;;;;;;;12810058;23;20320;-68
2023/08/21 21:40:14;;;;;;;12.27;7.53;;;;;;;;;;12819373;23;20056;-68
2023/08/21 21:45:16;;;;;;;13.93;9.00;;;;;;;;;;12800089;23;20212;-68
2023/08/21 21:50:17;;;;;;;11.57;8.00;;;;;;;;;;12820441;23;20234;-68
2023/08/21 21:55:20;;;;;;;10.55;7.47;;;;;;;;;;12820821;23;20000;-68
2023/08/21 22:00:20;;;;;;;10.80;8.20;;;;;;;;;;12821446;23;20208;-68
2023/08/21 22:05:20;;;;;;;11.15;8.23;;;;;;;;;;12820892;23;19989;-68
2023/08/21 22:10:21;;;;;;;11.77;7.77;;;;;;;;;;12820548;23;20236;-68
2023/08/21 22:15:21;;;;;;;15.45;8.48;;;;;;;;;;12821431;23;20059;-68
2023/08/21 22:20:22;;;;;;;12.32;8.68;;;;;;;;;;12820745;23;20004;-68
2023/08/21 22:25:22;;;;;;;11.30;8.05;;;;;;;;;;12773472;23;20004;-68
2023/08/21 22:30:22;;;;;;;15.27;8.90;;;;;;;;;;12820663;23;20223;-68
2023/08/21 22:35:23;;;;;;;14.00;8.13;;;;;;;;;;12820549;23;20048;-68
2023/08/21 22:40:27;;;;;;;13.68;8.95;;;;;;;;;;12819785;23;20172;-68
2023/08/21 22:45:28;;;;;;;13.40;8.25;;;;;;;;;;12773906;23;20024;-68
2023/08/21 22:50:28;;;;;;;15.80;9.48;;;;;;;;;;12820205;23;20048;-68
2023/08/21 22:55:29;;;;;;;17.98;10.05;;;;;;;;;;12821058;23;20298;-68
2023/08/21 23:00:29;;;;;;;15.35;8.95;;;;;;;;;;12773983;23;20000;-68
2023/08/21 23:05:29;;;;;;;11.93;8.10;;;;;;;;;;12820501;23;20221;-68
2023/08/21 23:10:30;;;;;;;19.30;9.68;;;;;;;;;;12773422;23;19989;-68
2023/08/21 23:15:30;;;;;;;13.52;8.68;;;;;;;;;;12820612;23;20052;-67
2023/08/21 23:20:30;;;;;;;10.75;7.78;;;;;;;;;;12820815;23;20192;-68
2023/08/21 23:25:31;;;;;;;13.07;9.13;;;;;;;;;;12820166;23;20001;-68
2023/08/21 23:30:31;;;;;;;18.05;8.95;;;;;;;;;;12820551;23;20027;-68
2023/08/21 23:35:31;;;;;;;16.13;9.00;;;;;;;;;;12820297;23;20252;-68
2023/08/21 23:40:31;;;;;;;11.25;8.55;;;;;;;;;;12819007;23;19985;-68
2023/08/21 23:45:32;;;;;;;10.95;8.57;;;;;;;;;;12820000;23;20314;-68
2023/08/21 23:50:32;;;;;;;13.75;8.65;;;;;;;;;;12820120;23;20032;-68
2023/08/21 23:55:37;;;;;;;13.30;8.95;;;;;;;;;;12819774;23;20255;-68
